sensor_id;sensor_type;location;lat;lon;timestamp;temperature;humidity
41924;DHT22;27613;48.116;11.656;2022-07-21T00:02:05;23.60;90.50
41924;DHT22;27613;48.116;11.656;2022-07-21T00:04:31;23.30;90.60
41924;DHT22;27613;48.116;11.656;2022-07-21T00:06:57;23.20;90.70
41924;DHT22;27613;48.116;11.656;2022-07-21T00:09:22;23.10;91.50
41924;DHT22;27613;48.116;11.656;2022-07-21T00:11:48;23.30;91.30
41924;DHT22;27613;48.116;11.656;2022-07-21T00:14:14;23.20;91.60
41924;DHT22;27613;48.116;11.656;2022-07-21T00:16:40;23.10;92.00
41924;DHT22;27613;48.116;11.656;2022-07-21T00:19:07;23.00;91.80
41924;DHT22;27613;48.116;11.656;2022-07-21T00:21:34;23.20;93.00
41924;DHT22;27613;48.116;11.656;2022-07-21T00:24:00;23.30;92.50
41924;DHT22;27613;48.116;11.656;2022-07-21T00:26:26;23.30;92.40
41924;DHT22;27613;48.116;11.656;2022-07-21T00:28:52;23.30;92.00
41924;DHT22;27613;48.116;11.656;2022-07-21T00:31:18;23.30;91.20
41924;DHT22;27613;48.116;11.656;2022-07-21T00:33:44;23.20;92.00
41924;DHT22;27613;48.116;11.656;2022-07-21T00:36:09;23.20;92.20
41924;DHT22;27613;48.116;11.656;2022-07-21T00:38:35;23.10;92.20
41924;DHT22;27613;48.116;11.656;2022-07-21T00:41:01;23.00;92.40
41924;DHT22;27613;48.116;11.656;2022-07-21T00:43:26;22.90;92.60
41924;DHT22;27613;48.116;11.656;2022-07-21T00:45:55;22.70;93.10
41924;DHT22;27613;48.116;11.656;2022-07-21T00:48:21;22.70;93.30
41924;DHT22;27613;48.116;11.656;2022-07-21T00:50:47;22.50;93.50
41924;DHT22;27613;48.116;11.656;2022-07-21T00:53:13;22.50;93.90
41924;DHT22;27613;48.116;11.656;2022-07-21T00:55:42;22.60;94.70
41924;DHT22;27613;48.116;11.656;2022-07-21T00:58:08;22.50;96.20
41924;DHT22;27613;48.116;11.656;2022-07-21T01:00:34;22.60;96.50
41924;DHT22;27613;48.116;11.656;2022-07-21T01:02:59;22.70;96.50
41924;DHT22;27613;48.116;11.656;2022-07-21T01:05:25;22.70;96.80
41924;DHT22;27613;48.116;11.656;2022-07-21T01:07:53;22.70;96.40
41924;DHT22;27613;48.116;11.656;2022-07-21T01:10:21;22.60;96.40
41924;DHT22;27613;48.116;11.656;2022-07-21T01:12:48;22.60;96.40
41924;DHT22;27613;48.116;11.656;2022-07-21T01:15:15;22.70;96.70
41924;DHT22;27613;48.116;11.656;2022-07-21T01:17:42;22.60;97.00
41924;DHT22;27613;48.116;11.656;2022-07-21T01:20:11;22.60;97.40
41924;DHT22;27613;48.116;11.656;2022-07-21T01:22:39;22.50;98.00
41924;DHT22;27613;48.116;11.656;2022-07-21T01:25:06;22.50;98.50
41924;DHT22;27613;48.116;11.656;2022-07-21T01:27:32;22.40;99.10
41924;DHT22;27613;48.116;11.656;2022-07-21T01:29:58;22.50;99.40
41924;DHT22;27613;48.116;11.656;2022-07-21T01:32:24;22.40;99.80
41924;DHT22;27613;48.116;11.656;2022-07-21T01:34:50;22.30;99.90
41924;DHT22;27613;48.116;11.656;2022-07-21T01:37:23;22.30;99.90
41924;DHT22;27613;48.116;11.656;2022-07-21T01:39:51;22.20;99.90
41924;DHT22;27613;48.116;11.656;2022-07-21T01:42:36;22.20;99.90
41924;DHT22;27613;48.116;11.656;2022-07-21T01:45:02;22.10;99.90
41924;DHT22;27613;48.116;11.656;2022-07-21T01:47:29;22.20;99.90
41924;DHT22;27613;48.116;11.656;2022-07-21T01:49:54;22.10;99.90
41924;DHT22;27613;48.116;11.656;2022-07-21T01:52:20;22.10;99.90
41924;DHT22;27613;48.116;11.656;2022-07-21T01:54:46;22.10;99.90
41924;DHT22;27613;48.116;11.656;2022-07-21T01:57:11;22.00;99.90
41924;DHT22;27613;48.116;11.656;2022-07-21T01:59:37;21.90;99.90
41924;DHT22;27613;48.116;11.656;2022-07-21T02:02:03;21.90;99.90
41924;DHT22;27613;48.116;11.656;2022-07-21T02:04:28;21.80;99.90
41924;DHT22;27613;48.116;11.656;2022-07-21T02:06:54;21.90;99.90
41924;DHT22;27613;48.116;11.656;2022-07-21T02:09:20;22.00;99.90
41924;DHT22;27613;48.116;11.656;2022-07-21T02:11:46;22.00;99.90
41924;DHT22;27613;48.116;11.656;2022-07-21T02:14:11;22.00;99.90
41924;DHT22;27613;48.116;11.656;2022-07-21T02:16:37;22.00;99.90
41924;DHT22;27613;48.116;11.656;2022-07-21T02:19:03;21.90;99.90
41924;DHT22;27613;48.116;11.656;2022-07-21T02:21:28;21.90;99.90
41924;DHT22;27613;48.116;11.656;2022-07-21T02:23:54;21.90;99.90
41924;DHT22;27613;48.116;11.656;2022-07-21T02:26:20;21.90;99.90
41924;DHT22;27613;48.116;11.656;2022-07-21T02:28:46;21.90;99.90
41924;DHT22;27613;48.116;11.656;2022-07-21T02:31:11;21.90;99.90
41924;DHT22;27613;48.116;11.656;2022-07-21T02:33:37;21.90;99.90
41924;DHT22;27613;48.116;11.656;2022-07-21T02:36:03;21.80;99.90
41924;DHT22;27613;48.116;11.656;2022-07-21T02:38:28;21.80;99.90
41924;DHT22;27613;48.116;11.656;2022-07-21T02:40:54;21.70;99.90
41924;DHT22;27613;48.116;11.656;2022-07-21T02:43:19;21.70;99.90
41924;DHT22;27613;48.116;11.656;2022-07-21T02:45:45;21.70;99.90
41924;DHT22;27613;48.116;11.656;2022-07-21T02:48:12;21.80;99.90
41924;DHT22;27613;48.116;11.656;2022-07-21T02:50:40;21.80;99.90
41924;DHT22;27613;48.116;11.656;2022-07-21T02:53:10;21.90;99.90
41924;DHT22;27613;48.116;11.656;2022-07-21T02:55:36;21.80;99.90
41924;DHT22;27613;48.116;11.656;2022-07-21T02:58:10;21.80;99.90
41924;DHT22;27613;48.116;11.656;2022-07-21T03:00:39;21.70;99.90
41924;DHT22;27613;48.116;11.656;2022-07-21T03:03:05;21.60;99.90
41924;DHT22;27613;48.116;11.656;2022-07-21T03:05:32;21.40;99.90
41924;DHT22;27613;48.116;11.656;2022-07-21T03:07:58;21.50;99.90
41924;DHT22;27613;48.116;11.656;2022-07-21T03:10:24;21.50;99.90
41924;DHT22;27613;48.116;11.656;2022-07-21T03:12:49;21.20;99.90
41924;DHT22;27613;48.116;11.656;2022-07-21T03:15:15;21.10;99.90
41924;DHT22;27613;48.116;11.656;2022-07-21T03:17:40;21.20;99.90
41924;DHT22;27613;48.116;11.656;2022-07-21T03:20:06;21.10;99.90
41924;DHT22;27613;48.116;11.656;2022-07-21T03:22:33;21.10;99.90
41924;DHT22;27613;48.116;11.656;2022-07-21T03:24:58;21.00;99.90
41924;DHT22;27613;48.116;11.656;2022-07-21T03:27:24;20.90;99.90
41924;DHT22;27613;48.116;11.656;2022-07-21T03:29:49;20.70;99.90
41924;DHT22;27613;48.116;11.656;2022-07-21T03:32:15;20.70;99.90
41924;DHT22;27613;48.116;11.656;2022-07-21T03:34:41;20.80;99.90
41924;DHT22;27613;48.116;11.656;2022-07-21T03:37:06;20.80;99.90
41924;DHT22;27613;48.116;11.656;2022-07-21T03:39:32;20.80;99.90
41924;DHT22;27613;48.116;11.656;2022-07-21T03:41:57;20.80;99.90
41924;DHT22;27613;48.116;11.656;2022-07-21T03:44:23;20.80;99.90
41924;DHT22;27613;48.116;11.656;2022-07-21T03:46:49;20.90;99.90
41924;DHT22;27613;48.116;11.656;2022-07-21T03:49:14;20.90;99.90
41924;DHT22;27613;48.116;11.656;2022-07-21T03:51:40;20.70;99.90
41924;DHT22;27613;48.116;11.656;2022-07-21T03:54:05;20.80;99.90
41924;DHT22;27613;48.116;11.656;2022-07-21T03:56:31;20.80;99.90
41924;DHT22;27613;48.116;11.656;2022-07-21T03:58:57;20.90;99.90
41924;DHT22;27613;48.116;11.656;2022-07-21T04:01:22;20.90;99.90
41924;DHT22;27613;48.116;11.656;2022-07-21T04:03:48;21.00;99.90
41924;DHT22;27613;48.116;11.656;2022-07-21T04:06:13;21.10;99.90
41924;DHT22;27613;48.116;11.656;2022-07-21T04:08:39;21.10;99.90
41924;DHT22;27613;48.116;11.656;2022-07-21T04:11:05;21.20;99.90
41924;DHT22;27613;48.116;11.656;2022-07-21T04:13:31;21.20;99.90
41924;DHT22;27613;48.116;11.656;2022-07-21T04:15:56;21.30;99.90
41924;DHT22;27613;48.116;11.656;2022-07-21T04:18:22;21.30;99.90
41924;DHT22;27613;48.116;11.656;2022-07-21T04:20:47;21.20;99.90
41924;DHT22;27613;48.116;11.656;2022-07-21T04:23:13;21.00;99.90
41924;DHT22;27613;48.116;11.656;2022-07-21T04:25:39;21.00;99.90
41924;DHT22;27613;48.116;11.656;2022-07-21T04:28:05;21.00;99.90
41924;DHT22;27613;48.116;11.656;2022-07-21T04:30:31;21.00;99.90
41924;DHT22;27613;48.116;11.656;2022-07-21T04:32:56;20.90;99.90
41924;DHT22;27613;48.116;11.656;2022-07-21T04:35:22;20.90;99.90
41924;DHT22;27613;48.116;11.656;2022-07-21T04:37:48;21.00;99.90
41924;DHT22;27613;48.116;11.656;2022-07-21T04:40:14;21.00;99.90
41924;DHT22;27613;48.116;11.656;2022-07-21T04:42:40;21.10;99.90
41924;DHT22;27613;48.116;11.656;2022-07-21T04:45:07;20.90;99.90
41924;DHT22;27613;48.116;11.656;2022-07-21T04:47:51;20.90;99.90
41924;DHT22;27613;48.116;11.656;2022-07-21T04:50:19;21.00;99.90
41924;DHT22;27613;48.116;11.656;2022-07-21T04:52:45;20.90;99.90
41924;DHT22;27613;48.116;11.656;2022-07-21T04:55:11;21.00;99.90
41924;DHT22;27613;48.116;11.656;2022-07-21T04:57:43;20.90;99.90
41924;DHT22;27613;48.116;11.656;2022-07-21T05:00:11;20.90;99.90
41924;DHT22;27613;48.116;11.656;2022-07-21T05:02:37;20.90;99.90
41924;DHT22;27613;48.116;11.656;2022-07-21T05:05:03;21.10;99.90
41924;DHT22;27613;48.116;11.656;2022-07-21T05:07:29;21.10;99.90
41924;DHT22;27613;48.116;11.656;2022-07-21T05:09:55;21.20;99.90
41924;DHT22;27613;48.116;11.656;2022-07-21T05:12:22;21.30;99.90
41924;DHT22;27613;48.116;11.656;2022-07-21T05:14:48;21.20;99.90
41924;DHT22;27613;48.116;11.656;2022-07-21T05:17:13;21.20;99.90
41924;DHT22;27613;48.116;11.656;2022-07-21T05:19:39;21.30;99.90
41924;DHT22;27613;48.116;11.656;2022-07-21T05:22:05;21.20;99.90
41924;DHT22;27613;48.116;11.656;2022-07-21T05:24:30;21.10;99.90
41924;DHT22;27613;48.116;11.656;2022-07-21T05:26:56;21.00;99.90
41924;DHT22;27613;48.116;11.656;2022-07-21T05:29:22;21.10;99.90
41924;DHT22;27613;48.116;11.656;2022-07-21T05:31:47;21.10;99.90
41924;DHT22;27613;48.116;11.656;2022-07-21T05:34:13;21.20;99.90
41924;DHT22;27613;48.116;11.656;2022-07-21T05:36:44;21.20;99.90
41924;DHT22;27613;48.116;11.656;2022-07-21T05:39:10;21.30;99.90
41924;DHT22;27613;48.116;11.656;2022-07-21T05:41:35;21.70;99.90
41924;DHT22;27613;48.116;11.656;2022-07-21T05:44:01;21.60;99.90
41924;DHT22;27613;48.116;11.656;2022-07-21T05:46:26;21.70;99.90
41924;DHT22;27613;48.116;11.656;2022-07-21T05:48:54;21.60;99.90
41924;DHT22;27613;48.116;11.656;2022-07-21T05:51:20;21.70;99.90
41924;DHT22;27613;48.116;11.656;2022-07-21T05:53:45;21.90;99.90
41924;DHT22;27613;48.116;11.656;2022-07-21T05:56:11;22.00;99.90
41924;DHT22;27613;48.116;11.656;2022-07-21T05:58:37;22.30;99.90
41924;DHT22;27613;48.116;11.656;2022-07-21T06:01:04;22.30;99.90
41924;DHT22;27613;48.116;11.656;2022-07-21T06:03:44;22.50;99.90
41924;DHT22;27613;48.116;11.656;2022-07-21T06:06:11;22.50;99.90
41924;DHT22;27613;48.116;11.656;2022-07-21T06:08:39;22.30;99.90
41924;DHT22;27613;48.116;11.656;2022-07-21T06:11:10;22.40;99.90
41924;DHT22;27613;48.116;11.656;2022-07-21T06:13:36;22.40;99.90
41924;DHT22;27613;48.116;11.656;2022-07-21T06:16:03;22.30;99.90
41924;DHT22;27613;48.116;11.656;2022-07-21T06:18:28;22.50;99.90
41924;DHT22;27613;48.116;11.656;2022-07-21T06:20:54;22.40;99.90
41924;DHT22;27613;48.116;11.656;2022-07-21T06:23:20;22.30;99.90
41924;DHT22;27613;48.116;11.656;2022-07-21T06:25:46;22.20;99.90
41924;DHT22;27613;48.116;11.656;2022-07-21T06:28:11;22.40;99.90
41924;DHT22;27613;48.116;11.656;2022-07-21T06:30:37;22.20;99.90
41924;DHT22;27613;48.116;11.656;2022-07-21T06:33:03;22.10;99.90
41924;DHT22;27613;48.116;11.656;2022-07-21T06:35:29;22.20;99.90
41924;DHT22;27613;48.116;11.656;2022-07-21T06:37:54;22.20;99.90
41924;DHT22;27613;48.116;11.656;2022-07-21T06:40:20;22.40;99.90
41924;DHT22;27613;48.116;11.656;2022-07-21T06:42:46;22.60;99.90
41924;DHT22;27613;48.116;11.656;2022-07-21T06:45:11;22.50;99.90
41924;DHT22;27613;48.116;11.656;2022-07-21T06:47:37;22.90;99.90
41924;DHT22;27613;48.116;11.656;2022-07-21T06:50:04;23.30;99.90
41924;DHT22;27613;48.116;11.656;2022-07-21T06:52:30;22.90;99.90
41924;DHT22;27613;48.116;11.656;2022-07-21T06:54:56;23.10;99.90
41924;DHT22;27613;48.116;11.656;2022-07-21T06:57:22;22.90;99.90
41924;DHT22;27613;48.116;11.656;2022-07-21T06:59:48;22.90;99.90
41924;DHT22;27613;48.116;11.656;2022-07-21T07:02:14;22.70;99.90
41924;DHT22;27613;48.116;11.656;2022-07-21T07:04:40;22.70;99.90
41924;DHT22;27613;48.116;11.656;2022-07-21T07:07:05;22.70;99.90
41924;DHT22;27613;48.116;11.656;2022-07-21T07:09:31;22.90;99.90
41924;DHT22;27613;48.116;11.656;2022-07-21T07:11:56;22.90;99.90
41924;DHT22;27613;48.116;11.656;2022-07-21T07:14:32;22.80;99.90
41924;DHT22;27613;48.116;11.656;2022-07-21T07:16:59;22.80;99.90
41924;DHT22;27613;48.116;11.656;2022-07-21T07:19:25;22.70;99.90
41924;DHT22;27613;48.116;11.656;2022-07-21T07:21:51;22.90;99.90
41924;DHT22;27613;48.116;11.656;2022-07-21T07:24:17;22.70;99.90
41924;DHT22;27613;48.116;11.656;2022-07-21T07:26:43;22.80;99.90
41924;DHT22;27613;48.116;11.656;2022-07-21T07:29:08;23.00;99.90
41924;DHT22;27613;48.116;11.656;2022-07-21T07:31:34;23.00;99.90
41924;DHT22;27613;48.116;11.656;2022-07-21T07:34:00;22.80;99.90
41924;DHT22;27613;48.116;11.656;2022-07-21T07:36:27;22.70;99.90
41924;DHT22;27613;48.116;11.656;2022-07-21T07:38:56;22.80;99.90
41924;DHT22;27613;48.116;11.656;2022-07-21T07:41:23;22.90;99.90
41924;DHT22;27613;48.116;11.656;2022-07-21T07:43:49;23.20;99.90
41924;DHT22;27613;48.116;11.656;2022-07-21T07:46:17;23.30;99.50
41924;DHT22;27613;48.116;11.656;2022-07-21T07:48:43;23.40;98.30
41924;DHT22;27613;48.116;11.656;2022-07-21T07:51:11;23.50;98.50
41924;DHT22;27613;48.116;11.656;2022-07-21T07:53:37;23.60;97.90
41924;DHT22;27613;48.116;11.656;2022-07-21T07:56:03;23.90;96.90
41924;DHT22;27613;48.116;11.656;2022-07-21T07:58:29;23.90;96.50
41924;DHT22;27613;48.116;11.656;2022-07-21T08:00:54;23.80;95.70
41924;DHT22;27613;48.116;11.656;2022-07-21T08:03:20;23.90;96.00
41924;DHT22;27613;48.116;11.656;2022-07-21T08:05:46;23.90;95.90
41924;DHT22;27613;48.116;11.656;2022-07-21T08:08:13;23.80;95.90
41924;DHT22;27613;48.116;11.656;2022-07-21T08:10:38;23.90;95.60
41924;DHT22;27613;48.116;11.656;2022-07-21T08:13:04;23.90;95.60
41924;DHT22;27613;48.116;11.656;2022-07-21T08:15:30;23.90;95.50
41924;DHT22;27613;48.116;11.656;2022-07-21T08:17:55;23.90;95.20
41924;DHT22;27613;48.116;11.656;2022-07-21T08:20:21;24.00;94.80
41924;DHT22;27613;48.116;11.656;2022-07-21T08:22:47;24.10;94.60
41924;DHT22;27613;48.116;11.656;2022-07-21T08:25:12;24.20;94.30
41924;DHT22;27613;48.116;11.656;2022-07-21T08:27:38;23.90;95.20
41924;DHT22;27613;48.116;11.656;2022-07-21T08:30:07;23.70;96.10
41924;DHT22;27613;48.116;11.656;2022-07-21T08:32:33;23.90;95.10
41924;DHT22;27613;48.116;11.656;2022-07-21T08:34:59;24.10;94.50
41924;DHT22;27613;48.116;11.656;2022-07-21T08:37:24;24.10;94.80
41924;DHT22;27613;48.116;11.656;2022-07-21T08:39:50;24.20;94.10
41924;DHT22;27613;48.116;11.656;2022-07-21T08:42:16;23.90;94.80
41924;DHT22;27613;48.116;11.656;2022-07-21T08:44:42;23.60;96.10
41924;DHT22;27613;48.116;11.656;2022-07-21T08:47:08;23.20;97.40
41924;DHT22;27613;48.116;11.656;2022-07-21T08:49:34;23.30;97.80
41924;DHT22;27613;48.116;11.656;2022-07-21T08:52:00;23.40;96.90
41924;DHT22;27613;48.116;11.656;2022-07-21T08:54:26;23.50;96.70
41924;DHT22;27613;48.116;11.656;2022-07-21T08:56:51;23.30;97.20
41924;DHT22;27613;48.116;11.656;2022-07-21T08:59:17;23.50;96.60
41924;DHT22;27613;48.116;11.656;2022-07-21T09:01:43;23.30;97.60
41924;DHT22;27613;48.116;11.656;2022-07-21T09:04:29;23.30;97.50
41924;DHT22;27613;48.116;11.656;2022-07-21T09:06:56;23.20;98.30
41924;DHT22;27613;48.116;11.656;2022-07-21T09:09:22;23.20;97.90
41924;DHT22;27613;48.116;11.656;2022-07-21T09:11:52;23.00;98.50
41924;DHT22;27613;48.116;11.656;2022-07-21T09:14:20;22.90;98.80
41924;DHT22;27613;48.116;11.656;2022-07-21T09:16:52;22.70;99.50
41924;DHT22;27613;48.116;11.656;2022-07-21T09:19:30;23.00;98.80
41924;DHT22;27613;48.116;11.656;2022-07-21T09:22:02;23.20;98.80
41924;DHT22;27613;48.116;11.656;2022-07-21T09:24:30;23.20;98.20
41924;DHT22;27613;48.116;11.656;2022-07-21T09:32:26;23.30;97.60
41924;DHT22;27613;48.116;11.656;2022-07-21T09:34:58;23.40;98.20
41924;DHT22;27613;48.116;11.656;2022-07-21T09:37:24;23.40;97.70
41924;DHT22;27613;48.116;11.656;2022-07-21T09:39:51;23.30;98.00
41924;DHT22;27613;48.116;11.656;2022-07-21T09:42:27;23.20;99.00
41924;DHT22;27613;48.116;11.656;2022-07-21T09:45:03;23.20;99.30
41924;DHT22;27613;48.116;11.656;2022-07-21T09:47:31;23.10;99.30
41924;DHT22;27613;48.116;11.656;2022-07-21T09:49:57;23.10;99.30
41924;DHT22;27613;48.116;11.656;2022-07-21T09:52:35;23.10;99.30
41924;DHT22;27613;48.116;11.656;2022-07-21T09:55:07;23.10;99.90
41924;DHT22;27613;48.116;11.656;2022-07-21T09:57:34;23.10;99.90
41924;DHT22;27613;48.116;11.656;2022-07-21T10:00:00;23.10;99.90
41924;DHT22;27613;48.116;11.656;2022-07-21T10:02:29;23.10;99.90
41924;DHT22;27613;48.116;11.656;2022-07-21T10:05:04;23.10;99.90
41924;DHT22;27613;48.116;11.656;2022-07-21T10:07:30;23.00;99.90
41924;DHT22;27613;48.116;11.656;2022-07-21T10:09:57;23.00;99.90
41924;DHT22;27613;48.116;11.656;2022-07-21T10:12:24;23.10;99.90
41924;DHT22;27613;48.116;11.656;2022-07-21T10:14:50;22.90;99.90
41924;DHT22;27613;48.116;11.656;2022-07-21T10:17:17;22.80;99.90
41924;DHT22;27613;48.116;11.656;2022-07-21T10:25:37;22.00;99.90
41924;DHT22;27613;48.116;11.656;2022-07-21T10:30:40;21.40;99.90
41924;DHT22;27613;48.116;11.656;2022-07-21T10:33:06;21.20;99.90
41924;DHT22;27613;48.116;11.656;2022-07-21T10:35:33;21.10;99.90
41924;DHT22;27613;48.116;11.656;2022-07-21T10:38:00;21.20;99.90
41924;DHT22;27613;48.116;11.656;2022-07-21T10:47:58;21.20;99.90
41924;DHT22;27613;48.116;11.656;2022-07-21T10:50:33;21.10;99.90
41924;DHT22;27613;48.116;11.656;2022-07-21T10:53:02;21.50;99.90
41924;DHT22;27613;48.116;11.656;2022-07-21T10:55:30;21.50;99.90
41924;DHT22;27613;48.116;11.656;2022-07-21T10:58:30;21.60;99.90
41924;DHT22;27613;48.116;11.656;2022-07-21T11:03:41;22.10;99.90
41924;DHT22;27613;48.116;11.656;2022-07-21T11:06:24;22.20;99.90
41924;DHT22;27613;48.116;11.656;2022-07-21T11:11:29;22.30;99.90
41924;DHT22;27613;48.116;11.656;2022-07-21T11:19:44;22.70;99.90
41924;DHT22;27613;48.116;11.656;2022-07-21T11:24:51;22.80;99.90
41924;DHT22;27613;48.116;11.656;2022-07-21T11:27:22;22.70;99.90
41924;DHT22;27613;48.116;11.656;2022-07-21T11:29:50;22.50;99.90
41924;DHT22;27613;48.116;11.656;2022-07-21T11:32:16;22.60;99.90
41924;DHT22;27613;48.116;11.656;2022-07-21T11:34:52;22.70;99.90
41924;DHT22;27613;48.116;11.656;2022-07-21T11:37:19;22.80;99.90
41924;DHT22;27613;48.116;11.656;2022-07-21T11:39:51;22.90;99.90
41924;DHT22;27613;48.116;11.656;2022-07-21T11:42:17;22.90;99.90
41924;DHT22;27613;48.116;11.656;2022-07-21T11:44:43;23.10;99.90
41924;DHT22;27613;48.116;11.656;2022-07-21T11:47:12;23.10;99.90
41924;DHT22;27613;48.116;11.656;2022-07-21T11:49:38;23.20;99.90
41924;DHT22;27613;48.116;11.656;2022-07-21T11:52:06;23.20;99.90
41924;DHT22;27613;48.116;11.656;2022-07-21T11:54:38;23.30;99.90
41924;DHT22;27613;48.116;11.656;2022-07-21T11:57:08;23.30;99.90
41924;DHT22;27613;48.116;11.656;2022-07-21T11:59:35;23.10;99.90
41924;DHT22;27613;48.116;11.656;2022-07-21T12:02:06;23.20;99.90
41924;DHT22;27613;48.116;11.656;2022-07-21T12:04:44;22.80;99.90
41924;DHT22;27613;48.116;11.656;2022-07-21T12:09:54;22.70;99.90
41924;DHT22;27613;48.116;11.656;2022-07-21T12:14:57;22.80;99.90
41924;DHT22;27613;48.116;11.656;2022-07-21T12:17:37;22.40;99.90
41924;DHT22;27613;48.116;11.656;2022-07-21T12:20:05;22.40;99.90
41924;DHT22;27613;48.116;11.656;2022-07-21T12:22:42;22.10;99.90
41924;DHT22;27613;48.116;11.656;2022-07-21T12:25:10;22.00;99.90
41924;DHT22;27613;48.116;11.656;2022-07-21T12:27:38;22.60;99.90
41924;DHT22;27613;48.116;11.656;2022-07-21T12:30:06;22.60;99.90
41924;DHT22;27613;48.116;11.656;2022-07-21T12:32:41;22.70;99.90
41924;DHT22;27613;48.116;11.656;2022-07-21T12:35:20;22.40;99.90
41924;DHT22;27613;48.116;11.656;2022-07-21T12:40:21;22.60;99.90
41924;DHT22;27613;48.116;11.656;2022-07-21T12:42:47;22.60;99.90
41924;DHT22;27613;48.116;11.656;2022-07-21T12:45:15;23.20;99.90
41924;DHT22;27613;48.116;11.656;2022-07-21T12:47:41;23.60;99.90
41924;DHT22;27613;48.116;11.656;2022-07-21T12:50:13;23.50;99.90
41924;DHT22;27613;48.116;11.656;2022-07-21T12:52:39;23.90;99.90
41924;DHT22;27613;48.116;11.656;2022-07-21T12:55:06;24.00;99.90
41924;DHT22;27613;48.116;11.656;2022-07-21T12:57:33;24.20;99.90
41924;DHT22;27613;48.116;11.656;2022-07-21T12:59:59;24.10;99.90
41924;DHT22;27613;48.116;11.656;2022-07-21T13:02:26;24.20;99.90
41924;DHT22;27613;48.116;11.656;2022-07-21T13:04:53;24.40;99.40
41924;DHT22;27613;48.116;11.656;2022-07-21T13:07:18;24.30;97.60
41924;DHT22;27613;48.116;11.656;2022-07-21T13:09:44;24.50;98.80
41924;DHT22;27613;48.116;11.656;2022-07-21T13:12:12;24.10;97.50
41924;DHT22;27613;48.116;11.656;2022-07-21T13:14:39;24.00;98.40
41924;DHT22;27613;48.116;11.656;2022-07-21T13:17:04;24.40;98.30
41924;DHT22;27613;48.116;11.656;2022-07-21T13:19:30;24.60;97.10
41924;DHT22;27613;48.116;11.656;2022-07-21T13:21:56;24.70;95.60
41924;DHT22;27613;48.116;11.656;2022-07-21T13:24:22;24.50;96.50
41924;DHT22;27613;48.116;11.656;2022-07-21T13:26:48;24.20;96.40
41924;DHT22;27613;48.116;11.656;2022-07-21T13:29:13;24.00;97.30
41924;DHT22;27613;48.116;11.656;2022-07-21T13:31:39;24.00;96.90
41924;DHT22;27613;48.116;11.656;2022-07-21T13:34:05;24.20;97.40
41924;DHT22;27613;48.116;11.656;2022-07-21T13:36:34;24.10;97.70
41924;DHT22;27613;48.116;11.656;2022-07-21T13:39:00;24.10;98.00
41924;DHT22;27613;48.116;11.656;2022-07-21T13:41:26;23.40;97.50
41924;DHT22;27613;48.116;11.656;2022-07-21T13:43:52;23.50;98.10
41924;DHT22;27613;48.116;11.656;2022-07-21T13:46:18;23.60;98.30
41924;DHT22;27613;48.116;11.656;2022-07-21T13:48:44;23.70;97.70
41924;DHT22;27613;48.116;11.656;2022-07-21T13:51:17;23.70;98.00
41924;DHT22;27613;48.116;11.656;2022-07-21T13:53:44;22.80;99.90
41924;DHT22;27613;48.116;11.656;2022-07-21T13:56:11;22.80;99.90
41924;DHT22;27613;48.116;11.656;2022-07-21T13:58:38;22.60;99.90
41924;DHT22;27613;48.116;11.656;2022-07-21T14:01:03;23.00;99.90
41924;DHT22;27613;48.116;11.656;2022-07-21T14:03:29;23.20;99.80
41924;DHT22;27613;48.116;11.656;2022-07-21T14:05:55;23.20;98.70
41924;DHT22;27613;48.116;11.656;2022-07-21T14:08:20;23.60;98.00
41924;DHT22;27613;48.116;11.656;2022-07-21T14:10:46;23.90;97.10
41924;DHT22;27613;48.116;11.656;2022-07-21T14:13:12;24.20;96.20
41924;DHT22;27613;48.116;11.656;2022-07-21T14:15:39;24.40;95.30
41924;DHT22;27613;48.116;11.656;2022-07-21T14:18:04;24.70;94.60
41924;DHT22;27613;48.116;11.656;2022-07-21T14:20:30;24.00;95.30
41924;DHT22;27613;48.116;11.656;2022-07-21T14:22:56;23.80;96.40
41924;DHT22;27613;48.116;11.656;2022-07-21T14:25:22;24.70;95.60
41924;DHT22;27613;48.116;11.656;2022-07-21T14:27:55;25.80;92.30
41924;DHT22;27613;48.116;11.656;2022-07-21T14:30:22;26.80;89.00
41924;DHT22;27613;48.116;11.656;2022-07-21T14:32:48;26.80;86.50
41924;DHT22;27613;48.116;11.656;2022-07-21T14:35:15;27.90;83.00
41924;DHT22;27613;48.116;11.656;2022-07-21T14:37:42;27.50;81.20
41924;DHT22;27613;48.116;11.656;2022-07-21T14:40:10;28.60;81.40
41924;DHT22;27613;48.116;11.656;2022-07-21T14:42:36;29.20;77.50
41924;DHT22;27613;48.116;11.656;2022-07-21T14:45:03;29.40;74.70
41924;DHT22;27613;48.116;11.656;2022-07-21T14:47:29;27.50;79.60
41924;DHT22;27613;48.116;11.656;2022-07-21T14:49:56;28.20;79.60
41924;DHT22;27613;48.116;11.656;2022-07-21T14:52:21;29.20;76.60
41924;DHT22;27613;48.116;11.656;2022-07-21T14:54:47;29.20;75.50
41924;DHT22;27613;48.116;11.656;2022-07-21T14:57:13;28.50;77.70
41924;DHT22;27613;48.116;11.656;2022-07-21T14:59:39;28.40;77.70
41924;DHT22;27613;48.116;11.656;2022-07-21T15:02:05;28.90;75.20
41924;DHT22;27613;48.116;11.656;2022-07-21T15:04:30;27.50;75.60
41924;DHT22;27613;48.116;11.656;2022-07-21T15:06:56;27.90;75.70
41924;DHT22;27613;48.116;11.656;2022-07-21T15:09:22;28.00;75.70
41924;DHT22;27613;48.116;11.656;2022-07-21T15:11:47;28.00;74.90
41924;DHT22;27613;48.116;11.656;2022-07-21T15:14:13;27.10;76.40
41924;DHT22;27613;48.116;11.656;2022-07-21T15:16:39;26.90;77.40
41924;DHT22;27613;48.116;11.656;2022-07-21T15:19:04;27.10;76.80
41924;DHT22;27613;48.116;11.656;2022-07-21T15:21:30;27.90;74.30
41924;DHT22;27613;48.116;11.656;2022-07-21T15:23:55;27.90;75.30
41924;DHT22;27613;48.116;11.656;2022-07-21T15:26:21;28.20;73.40
41924;DHT22;27613;48.116;11.656;2022-07-21T15:28:47;27.70;74.70
41924;DHT22;27613;48.116;11.656;2022-07-21T15:31:13;27.80;74.10
41924;DHT22;27613;48.116;11.656;2022-07-21T15:33:38;27.20;74.20
41924;DHT22;27613;48.116;11.656;2022-07-21T15:36:05;26.50;76.40
41924;DHT22;27613;48.116;11.656;2022-07-21T15:38:31;26.10;77.90
41924;DHT22;27613;48.116;11.656;2022-07-21T15:40:57;26.10;78.00
41924;DHT22;27613;48.116;11.656;2022-07-21T15:43:23;25.70;79.50
41924;DHT22;27613;48.116;11.656;2022-07-21T15:45:48;26.30;77.70
41924;DHT22;27613;48.116;11.656;2022-07-21T15:48:14;26.30;78.30
41924;DHT22;27613;48.116;11.656;2022-07-21T15:50:40;26.70;77.30
41924;DHT22;27613;48.116;11.656;2022-07-21T15:53:06;27.40;75.80
41924;DHT22;27613;48.116;11.656;2022-07-21T15:55:33;27.40;74.20
41924;DHT22;27613;48.116;11.656;2022-07-21T15:57:59;27.50;75.30